Airfield :







YOU CAN JOIN US ON...

 
LOGIN :

Register | Disclaimer

   EN    FR    IT 

 









Legend :    VFR   Marginal VFR   IFR   Intensive IFR   Very Intensive IFR
Visi :
Ceiling :
>= 8 km
>= 3000ft
5 to 8 km
1000 to 3000 ft
1500m to 5 km
500 to 1000 ft
800 to 1500m
200 to 500 ft
< 800m
< 200 ft
Symbols :   Thunderstorms  Fog  Heavy snow  Heavy precipitations  Wind > 20 kt






- Airport Elevation : 237 ft
- IATA code : BQN


TJBQ - Rafael Hernandez

CURRENT METAR :
  • 090050Z 11003KT 10SM BKN039 23/ A2999

EXPIRED METARs :
  • 082350Z 11005KT 10SM SCT042 SCT055 BKN065 23/ A2998
  • 082250Z 12008KT 10SM BKN042 BKN055 OVC070 23/ A2995

TAF TJBQ
Valid from the 09 at 00:00 until the 10 at 00:00 UTC


082339Z 0900/0924 11008KT P6SM -SHRA VCSH SCT025 BKN050 BKN090
FM090300 13004KT P6SM VCSH SCT030 SCT050 BKN090
FM091430 04010KT P6SM FEW030 FEW050 SCT090
FM091700 34011KT P6SM VCSH SCT025 BKN050 AMD NOT SKED 0902/0911



MET'MAP, your aeronautical weather chart ! - Copyright ORBIFLY December 2007 - Disclaimer

ORBIFLY MET'MAP TEAM :

Programming & Development : Alexandra Zaïnal
Concept & original design : Baudouin d'Aumeries
Assistance for programming : Marc-Olivier Méhu
Technical & hardware support : Manuel Goepfert

Contact : metmap@orbifly.com




SOURCES & CREDITS :

   NOAA